sensor_id;sensor_type;location;lat;lon;timestamp;P1;durP1;ratioP1;P2;durP2;ratioP2
24277;SDS011;12394;42.692;23.314;2023-12-28T00:02:03;35.23;;;22.17;;
24277;SDS011;12394;42.692;23.314;2023-12-28T00:04:28;38.83;;;23.13;;
24277;SDS011;12394;42.692;23.314;2023-12-28T00:06:54;39.37;;;23.93;;
24277;SDS011;12394;42.692;23.314;2023-12-28T00:09:20;46.23;;;24.73;;
24277;SDS011;12394;42.692;23.314;2023-12-28T00:11:45;43.10;;;24.30;;
24277;SDS011;12394;42.692;23.314;2023-12-28T00:14:11;44.67;;;25.10;;
24277;SDS011;12394;42.692;23.314;2023-12-28T00:16:36;45.67;;;24.83;;
24277;SDS011;12394;42.692;23.314;2023-12-28T00:19:03;42.90;;;23.30;;
24277;SDS011;12394;42.692;23.314;2023-12-28T00:21:29;41.70;;;23.10;;
24277;SDS011;12394;42.692;23.314;2023-12-28T00:23:56;46.70;;;24.67;;
24277;SDS011;12394;42.692;23.314;2023-12-28T00:26:21;40.50;;;26.10;;
24277;SDS011;12394;42.692;23.314;2023-12-28T00:28:47;43.07;;;25.70;;
24277;SDS011;12394;42.692;23.314;2023-12-28T00:31:13;42.60;;;26.03;;
24277;SDS011;12394;42.692;23.314;2023-12-28T00:33:38;49.07;;;27.17;;
24277;SDS011;12394;42.692;23.314;2023-12-28T00:36:04;46.60;;;25.13;;
24277;SDS011;12394;42.692;23.314;2023-12-28T00:38:29;47.27;;;25.07;;
24277;SDS011;12394;42.692;23.314;2023-12-28T00:40:55;45.33;;;27.40;;
24277;SDS011;12394;42.692;23.314;2023-12-28T00:43:20;42.57;;;21.73;;
24277;SDS011;12394;42.692;23.314;2023-12-28T00:45:46;39.00;;;21.90;;
24277;SDS011;12394;42.692;23.314;2023-12-28T00:48:11;37.57;;;21.30;;
24277;SDS011;12394;42.692;23.314;2023-12-28T00:50:37;38.83;;;22.10;;
24277;SDS011;12394;42.692;23.314;2023-12-28T00:53:02;37.47;;;23.27;;
24277;SDS011;12394;42.692;23.314;2023-12-28T00:55:28;44.83;;;23.50;;
24277;SDS011;12394;42.692;23.314;2023-12-28T00:57:54;39.17;;;22.57;;
24277;SDS011;12394;42.692;23.314;2023-12-28T01:00:19;41.60;;;21.87;;
24277;SDS011;12394;42.692;23.314;2023-12-28T01:02:45;38.23;;;22.80;;
24277;SDS011;12394;42.692;23.314;2023-12-28T01:05:14;33.40;;;20.97;;
24277;SDS011;12394;42.692;23.314;2023-12-28T01:07:39;41.37;;;22.30;;
24277;SDS011;12394;42.692;23.314;2023-12-28T01:10:05;42.80;;;23.27;;
24277;SDS011;12394;42.692;23.314;2023-12-28T01:12:31;42.20;;;25.87;;
24277;SDS011;12394;42.692;23.314;2023-12-28T01:14:56;47.47;;;25.20;;
24277;SDS011;12394;42.692;23.314;2023-12-28T01:17:22;44.03;;;26.33;;
24277;SDS011;12394;42.692;23.314;2023-12-28T01:19:47;47.53;;;26.43;;
24277;SDS011;12394;42.692;23.314;2023-12-28T01:22:13;43.53;;;25.50;;
24277;SDS011;12394;42.692;23.314;2023-12-28T01:24:38;46.30;;;28.10;;
24277;SDS011;12394;42.692;23.314;2023-12-28T01:27:04;44.13;;;26.27;;
24277;SDS011;12394;42.692;23.314;2023-12-28T01:29:29;49.13;;;28.60;;
24277;SDS011;12394;42.692;23.314;2023-12-28T01:31:55;45.13;;;26.67;;
24277;SDS011;12394;42.692;23.314;2023-12-28T01:34:20;43.97;;;27.83;;
24277;SDS011;12394;42.692;23.314;2023-12-28T01:36:46;46.83;;;26.83;;
24277;SDS011;12394;42.692;23.314;2023-12-28T01:39:11;40.47;;;24.70;;
24277;SDS011;12394;42.692;23.314;2023-12-28T01:41:37;40.57;;;25.13;;
24277;SDS011;12394;42.692;23.314;2023-12-28T01:44:02;50.00;;;28.07;;
24277;SDS011;12394;42.692;23.314;2023-12-28T01:46:28;41.57;;;26.57;;
24277;SDS011;12394;42.692;23.314;2023-12-28T01:48:53;47.67;;;28.20;;
24277;SDS011;12394;42.692;23.314;2023-12-28T01:51:21;42.10;;;26.50;;
24277;SDS011;12394;42.692;23.314;2023-12-28T01:53:48;46.13;;;27.37;;
24277;SDS011;12394;42.692;23.314;2023-12-28T01:56:15;39.23;;;22.30;;
24277;SDS011;12394;42.692;23.314;2023-12-28T01:58:43;40.07;;;23.03;;
24277;SDS011;12394;42.692;23.314;2023-12-28T02:01:10;43.67;;;25.97;;
24277;SDS011;12394;42.692;23.314;2023-12-28T02:03:36;48.37;;;28.50;;
24277;SDS011;12394;42.692;23.314;2023-12-28T02:06:01;47.93;;;27.77;;
24277;SDS011;12394;42.692;23.314;2023-12-28T02:08:28;44.30;;;27.07;;
24277;SDS011;12394;42.692;23.314;2023-12-28T02:10:54;44.90;;;26.37;;
24277;SDS011;12394;42.692;23.314;2023-12-28T02:13:20;48.97;;;27.90;;
24277;SDS011;12394;42.692;23.314;2023-12-28T02:15:47;43.80;;;26.20;;
24277;SDS011;12394;42.692;23.314;2023-12-28T02:18:20;45.30;;;26.30;;
24277;SDS011;12394;42.692;23.314;2023-12-28T02:20:48;42.53;;;24.50;;
24277;SDS011;12394;42.692;23.314;2023-12-28T02:23:15;47.73;;;26.33;;
24277;SDS011;12394;42.692;23.314;2023-12-28T02:25:41;38.23;;;24.53;;
24277;SDS011;12394;42.692;23.314;2023-12-28T02:28:06;35.40;;;23.27;;
24277;SDS011;12394;42.692;23.314;2023-12-28T02:30:32;37.83;;;23.17;;
24277;SDS011;12394;42.692;23.314;2023-12-28T02:35:24;41.17;;;24.40;;
24277;SDS011;12394;42.692;23.314;2023-12-28T02:37:55;38.43;;;23.53;;
24277;SDS011;12394;42.692;23.314;2023-12-28T02:40:23;48.77;;;24.40;;
24277;SDS011;12394;42.692;23.314;2023-12-28T02:42:50;34.00;;;22.53;;
24277;SDS011;12394;42.692;23.314;2023-12-28T02:45:16;38.13;;;22.20;;
24277;SDS011;12394;42.692;23.314;2023-12-28T02:47:43;42.17;;;22.47;;
24277;SDS011;12394;42.692;23.314;2023-12-28T02:50:09;36.97;;;21.67;;
24277;SDS011;12394;42.692;23.314;2023-12-28T02:52:34;43.83;;;24.57;;
24277;SDS011;12394;42.692;23.314;2023-12-28T02:55:00;43.07;;;25.00;;
24277;SDS011;12394;42.692;23.314;2023-12-28T02:57:25;42.17;;;24.40;;
24277;SDS011;12394;42.692;23.314;2023-12-28T02:59:51;43.67;;;24.77;;
24277;SDS011;12394;42.692;23.314;2023-12-28T03:02:16;38.80;;;23.77;;
24277;SDS011;12394;42.692;23.314;2023-12-28T03:04:42;37.53;;;24.67;;
24277;SDS011;12394;42.692;23.314;2023-12-28T03:07:08;42.80;;;25.43;;
24277;SDS011;12394;42.692;23.314;2023-12-28T03:09:33;41.67;;;25.57;;
24277;SDS011;12394;42.692;23.314;2023-12-28T03:11:59;44.60;;;27.67;;
24277;SDS011;12394;42.692;23.314;2023-12-28T03:14:25;40.83;;;25.17;;
24277;SDS011;12394;42.692;23.314;2023-12-28T03:16:51;41.93;;;24.53;;
24277;SDS011;12394;42.692;23.314;2023-12-28T03:19:16;40.30;;;23.90;;
24277;SDS011;12394;42.692;23.314;2023-12-28T03:21:42;36.70;;;25.50;;
24277;SDS011;12394;42.692;23.314;2023-12-28T03:24:08;46.27;;;25.00;;
24277;SDS011;12394;42.692;23.314;2023-12-28T03:26:37;43.97;;;25.27;;
24277;SDS011;12394;42.692;23.314;2023-12-28T03:29:06;41.17;;;24.50;;
24277;SDS011;12394;42.692;23.314;2023-12-28T03:31:33;42.63;;;23.20;;
24277;SDS011;12394;42.692;23.314;2023-12-28T03:33:59;39.93;;;23.00;;
24277;SDS011;12394;42.692;23.314;2023-12-28T03:36:24;40.53;;;23.53;;
24277;SDS011;12394;42.692;23.314;2023-12-28T03:38:50;35.33;;;23.63;;
24277;SDS011;12394;42.692;23.314;2023-12-28T03:41:18;35.60;;;21.57;;
24277;SDS011;12394;42.692;23.314;2023-12-28T03:43:44;43.60;;;22.07;;
24277;SDS011;12394;42.692;23.314;2023-12-28T03:46:10;39.90;;;22.57;;
24277;SDS011;12394;42.692;23.314;2023-12-28T03:48:36;41.87;;;23.77;;
24277;SDS011;12394;42.692;23.314;2023-12-28T03:51:02;39.03;;;23.37;;
24277;SDS011;12394;42.692;23.314;2023-12-28T03:53:28;36.10;;;22.17;;
24277;SDS011;12394;42.692;23.314;2023-12-28T03:55:56;35.40;;;23.03;;
24277;SDS011;12394;42.692;23.314;2023-12-28T03:58:22;39.00;;;23.20;;
24277;SDS011;12394;42.692;23.314;2023-12-28T04:00:48;31.67;;;21.20;;
24277;SDS011;12394;42.692;23.314;2023-12-28T04:03:13;36.70;;;22.80;;
24277;SDS011;12394;42.692;23.314;2023-12-28T04:05:38;39.80;;;24.73;;
24277;SDS011;12394;42.692;23.314;2023-12-28T04:08:04;37.37;;;22.60;;
24277;SDS011;12394;42.692;23.314;2023-12-28T04:10:31;35.70;;;21.93;;
24277;SDS011;12394;42.692;23.314;2023-12-28T04:12:57;37.13;;;21.33;;
24277;SDS011;12394;42.692;23.314;2023-12-28T04:15:27;33.23;;;21.37;;
24277;SDS011;12394;42.692;23.314;2023-12-28T04:17:52;36.40;;;21.87;;
24277;SDS011;12394;42.692;23.314;2023-12-28T04:20:18;35.87;;;21.13;;
24277;SDS011;12394;42.692;23.314;2023-12-28T04:22:43;36.47;;;20.73;;
24277;SDS011;12394;42.692;23.314;2023-12-28T04:25:09;39.63;;;22.33;;
24277;SDS011;12394;42.692;23.314;2023-12-28T04:27:36;35.73;;;21.30;;
24277;SDS011;12394;42.692;23.314;2023-12-28T04:30:02;44.00;;;22.93;;
24277;SDS011;12394;42.692;23.314;2023-12-28T04:32:30;42.03;;;22.50;;
24277;SDS011;12394;42.692;23.314;2023-12-28T04:34:58;43.23;;;21.83;;
24277;SDS011;12394;42.692;23.314;2023-12-28T04:37:24;33.17;;;20.03;;
24277;SDS011;12394;42.692;23.314;2023-12-28T04:39:52;35.27;;;21.33;;
24277;SDS011;12394;42.692;23.314;2023-12-28T04:42:18;33.97;;;20.20;;
24277;SDS011;12394;42.692;23.314;2023-12-28T04:44:44;45.67;;;21.93;;
24277;SDS011;12394;42.692;23.314;2023-12-28T04:47:09;31.03;;;20.13;;
24277;SDS011;12394;42.692;23.314;2023-12-28T04:49:35;32.17;;;19.80;;
24277;SDS011;12394;42.692;23.314;2023-12-28T04:52:00;32.63;;;19.83;;
24277;SDS011;12394;42.692;23.314;2023-12-28T04:54:26;32.80;;;19.37;;
24277;SDS011;12394;42.692;23.314;2023-12-28T04:56:51;38.03;;;20.27;;
24277;SDS011;12394;42.692;23.314;2023-12-28T04:59:17;35.47;;;19.87;;
24277;SDS011;12394;42.692;23.314;2023-12-28T05:01:42;32.67;;;19.73;;
24277;SDS011;12394;42.692;23.314;2023-12-28T05:04:09;39.13;;;20.97;;
24277;SDS011;12394;42.692;23.314;2023-12-28T05:06:35;34.23;;;21.50;;
24277;SDS011;12394;42.692;23.314;2023-12-28T05:09:00;30.93;;;20.10;;
24277;SDS011;12394;42.692;23.314;2023-12-28T05:11:26;32.70;;;19.80;;
24277;SDS011;12394;42.692;23.314;2023-12-28T05:13:52;39.83;;;21.87;;
24277;SDS011;12394;42.692;23.314;2023-12-28T05:16:18;33.90;;;20.10;;
24277;SDS011;12394;42.692;23.314;2023-12-28T05:18:45;31.13;;;19.47;;
24277;SDS011;12394;42.692;23.314;2023-12-28T05:21:11;37.13;;;21.27;;
24277;SDS011;12394;42.692;23.314;2023-12-28T05:23:37;36.60;;;21.00;;
24277;SDS011;12394;42.692;23.314;2023-12-28T05:26:03;37.77;;;21.10;;
24277;SDS011;12394;42.692;23.314;2023-12-28T05:28:28;38.20;;;22.87;;
24277;SDS011;12394;42.692;23.314;2023-12-28T05:30:54;39.40;;;23.07;;
24277;SDS011;12394;42.692;23.314;2023-12-28T05:33:19;35.10;;;23.20;;
24277;SDS011;12394;42.692;23.314;2023-12-28T05:35:45;44.27;;;23.67;;
24277;SDS011;12394;42.692;23.314;2023-12-28T05:38:10;39.57;;;23.60;;
24277;SDS011;12394;42.692;23.314;2023-12-28T05:40:36;41.57;;;23.37;;
24277;SDS011;12394;42.692;23.314;2023-12-28T05:43:01;44.37;;;23.67;;
24277;SDS011;12394;42.692;23.314;2023-12-28T05:45:27;38.20;;;22.17;;
24277;SDS011;12394;42.692;23.314;2023-12-28T05:47:52;43.60;;;24.23;;
24277;SDS011;12394;42.692;23.314;2023-12-28T05:50:18;40.60;;;24.67;;
24277;SDS011;12394;42.692;23.314;2023-12-28T05:52:43;45.50;;;23.47;;
24277;SDS011;12394;42.692;23.314;2023-12-28T05:55:08;41.17;;;23.93;;
24277;SDS011;12394;42.692;23.314;2023-12-28T05:57:34;44.23;;;23.83;;
24277;SDS011;12394;42.692;23.314;2023-12-28T05:59:59;44.03;;;24.67;;
24277;SDS011;12394;42.692;23.314;2023-12-28T06:02:25;41.07;;;27.20;;
24277;SDS011;12394;42.692;23.314;2023-12-28T06:04:50;43.53;;;26.00;;
24277;SDS011;12394;42.692;23.314;2023-12-28T06:07:16;40.23;;;24.10;;
24277;SDS011;12394;42.692;23.314;2023-12-28T06:09:41;46.57;;;24.83;;
24277;SDS011;12394;42.692;23.314;2023-12-28T06:12:07;45.73;;;25.80;;
24277;SDS011;12394;42.692;23.314;2023-12-28T06:14:32;53.37;;;27.83;;
24277;SDS011;12394;42.692;23.314;2023-12-28T06:16:58;43.00;;;26.33;;
24277;SDS011;12394;42.692;23.314;2023-12-28T06:19:23;48.47;;;24.90;;
24277;SDS011;12394;42.692;23.314;2023-12-28T06:21:49;42.07;;;23.90;;
24277;SDS011;12394;42.692;23.314;2023-12-28T06:24:14;39.73;;;24.27;;
24277;SDS011;12394;42.692;23.314;2023-12-28T06:26:40;47.43;;;26.07;;
24277;SDS011;12394;42.692;23.314;2023-12-28T06:29:07;41.97;;;25.47;;
24277;SDS011;12394;42.692;23.314;2023-12-28T06:31:33;45.17;;;25.37;;
24277;SDS011;12394;42.692;23.314;2023-12-28T06:34:01;43.83;;;27.83;;
24277;SDS011;12394;42.692;23.314;2023-12-28T06:36:31;48.80;;;27.60;;
24277;SDS011;12394;42.692;23.314;2023-12-28T06:38:57;47.67;;;26.47;;
24277;SDS011;12394;42.692;23.314;2023-12-28T06:41:26;45.97;;;25.53;;
24277;SDS011;12394;42.692;23.314;2023-12-28T06:43:52;43.33;;;25.07;;
24277;SDS011;12394;42.692;23.314;2023-12-28T06:46:18;44.03;;;25.67;;
24277;SDS011;12394;42.692;23.314;2023-12-28T06:48:44;47.13;;;25.77;;
24277;SDS011;12394;42.692;23.314;2023-12-28T06:51:10;43.50;;;25.17;;
24277;SDS011;12394;42.692;23.314;2023-12-28T06:53:41;60.33;;;26.43;;
24277;SDS011;12394;42.692;23.314;2023-12-28T06:56:06;38.73;;;22.60;;
24277;SDS011;12394;42.692;23.314;2023-12-28T06:58:32;39.83;;;24.27;;
24277;SDS011;12394;42.692;23.314;2023-12-28T07:00:58;40.13;;;25.03;;
24277;SDS011;12394;42.692;23.314;2023-12-28T07:03:23;47.40;;;26.00;;
24277;SDS011;12394;42.692;23.314;2023-12-28T07:05:50;48.33;;;27.50;;
24277;SDS011;12394;42.692;23.314;2023-12-28T07:08:16;42.40;;;25.30;;
24277;SDS011;12394;42.692;23.314;2023-12-28T07:10:43;37.73;;;23.37;;
24277;SDS011;12394;42.692;23.314;2023-12-28T07:13:09;37.33;;;22.80;;
24277;SDS011;12394;42.692;23.314;2023-12-28T07:15:34;30.93;;;20.07;;
24277;SDS011;12394;42.692;23.314;2023-12-28T07:18:01;30.77;;;18.67;;
24277;SDS011;12394;42.692;23.314;2023-12-28T07:20:26;19.40;;;12.17;;
24277;SDS011;12394;42.692;23.314;2023-12-28T07:22:52;26.50;;;13.57;;
24277;SDS011;12394;42.692;23.314;2023-12-28T07:25:17;23.97;;;14.67;;
24277;SDS011;12394;42.692;23.314;2023-12-28T07:27:43;27.57;;;14.37;;
24277;SDS011;12394;42.692;23.314;2023-12-28T07:30:08;21.07;;;13.50;;
24277;SDS011;12394;42.692;23.314;2023-12-28T07:32:35;26.07;;;14.70;;
24277;SDS011;12394;42.692;23.314;2023-12-28T07:35:01;21.33;;;14.80;;
24277;SDS011;12394;42.692;23.314;2023-12-28T07:37:26;22.30;;;15.90;;
24277;SDS011;12394;42.692;23.314;2023-12-28T07:39:52;28.43;;;17.83;;
24277;SDS011;12394;42.692;23.314;2023-12-28T07:42:18;28.63;;;17.73;;
24277;SDS011;12394;42.692;23.314;2023-12-28T07:44:43;23.27;;;15.53;;
24277;SDS011;12394;42.692;23.314;2023-12-28T07:47:09;26.27;;;15.83;;
24277;SDS011;12394;42.692;23.314;2023-12-28T07:49:35;24.40;;;16.23;;
24277;SDS011;12394;42.692;23.314;2023-12-28T07:52:00;23.97;;;15.67;;
24277;SDS011;12394;42.692;23.314;2023-12-28T07:54:25;27.73;;;17.00;;
24277;SDS011;12394;42.692;23.314;2023-12-28T07:56:51;22.60;;;15.90;;
24277;SDS011;12394;42.692;23.314;2023-12-28T07:59:16;21.07;;;15.23;;
24277;SDS011;12394;42.692;23.314;2023-12-28T08:01:42;22.67;;;15.10;;
24277;SDS011;12394;42.692;23.314;2023-12-28T08:04:08;35.93;;;20.93;;
24277;SDS011;12394;42.692;23.314;2023-12-28T08:06:34;34.03;;;21.87;;
24277;SDS011;12394;42.692;23.314;2023-12-28T08:08:59;31.10;;;21.63;;
24277;SDS011;12394;42.692;23.314;2023-12-28T08:11:28;25.37;;;20.27;;
24277;SDS011;12394;42.692;23.314;2023-12-28T08:13:53;32.93;;;19.43;;
24277;SDS011;12394;42.692;23.314;2023-12-28T08:16:19;31.83;;;20.80;;
24277;SDS011;12394;42.692;23.314;2023-12-28T08:18:45;36.63;;;20.37;;
24277;SDS011;12394;42.692;23.314;2023-12-28T08:21:10;28.20;;;19.47;;
24277;SDS011;12394;42.692;23.314;2023-12-28T08:23:36;32.53;;;21.33;;
24277;SDS011;12394;42.692;23.314;2023-12-28T08:26:01;25.10;;;17.77;;
24277;SDS011;12394;42.692;23.314;2023-12-28T08:28:27;33.20;;;20.27;;
24277;SDS011;12394;42.692;23.314;2023-12-28T08:30:53;41.27;;;21.37;;
24277;SDS011;12394;42.692;23.314;2023-12-28T08:33:19;31.67;;;22.83;;
24277;SDS011;12394;42.692;23.314;2023-12-28T08:35:45;38.50;;;23.43;;
24277;SDS011;12394;42.692;23.314;2023-12-28T08:38:11;36.07;;;23.57;;
24277;SDS011;12394;42.692;23.314;2023-12-28T08:40:36;33.53;;;24.43;;
24277;SDS011;12394;42.692;23.314;2023-12-28T08:43:02;39.83;;;24.40;;
24277;SDS011;12394;42.692;23.314;2023-12-28T08:45:27;33.53;;;23.63;;
24277;SDS011;12394;42.692;23.314;2023-12-28T08:47:53;39.90;;;25.97;;
24277;SDS011;12394;42.692;23.314;2023-12-28T08:50:19;35.77;;;24.07;;
24277;SDS011;12394;42.692;23.314;2023-12-28T08:52:44;37.10;;;24.77;;
24277;SDS011;12394;42.692;23.314;2023-12-28T08:55:09;36.13;;;27.40;;
24277;SDS011;12394;42.692;23.314;2023-12-28T08:57:35;33.33;;;26.83;;
24277;SDS011;12394;42.692;23.314;2023-12-28T09:00:00;36.00;;;25.73;;
24277;SDS011;12394;42.692;23.314;2023-12-28T09:02:28;37.57;;;27.30;;
24277;SDS011;12394;42.692;23.314;2023-12-28T09:04:54;38.50;;;24.97;;
24277;SDS011;12394;42.692;23.314;2023-12-28T09:07:19;52.40;;;39.97;;
24277;SDS011;12394;42.692;23.314;2023-12-28T09:09:45;30.77;;;22.17;;
24277;SDS011;12394;42.692;23.314;2023-12-28T09:12:11;42.07;;;30.87;;
24277;SDS011;12394;42.692;23.314;2023-12-28T09:14:37;46.80;;;30.30;;
24277;SDS011;12394;42.692;23.314;2023-12-28T09:17:02;45.37;;;32.00;;
24277;SDS011;12394;42.692;23.314;2023-12-28T09:19:28;57.30;;;30.90;;
24277;SDS011;12394;42.692;23.314;2023-12-28T09:21:54;41.97;;;32.17;;
24277;SDS011;12394;42.692;23.314;2023-12-28T09:24:19;47.50;;;30.57;;
24277;SDS011;12394;42.692;23.314;2023-12-28T09:26:44;40.60;;;30.17;;
24277;SDS011;12394;42.692;23.314;2023-12-28T09:29:10;44.10;;;30.87;;
24277;SDS011;12394;42.692;23.314;2023-12-28T09:31:37;59.63;;;47.30;;
24277;SDS011;12394;42.692;23.314;2023-12-28T09:34:02;43.10;;;31.67;;
24277;SDS011;12394;42.692;23.314;2023-12-28T09:36:29;41.17;;;29.70;;
24277;SDS011;12394;42.692;23.314;2023-12-28T09:38:55;48.20;;;31.47;;
24277;SDS011;12394;42.692;23.314;2023-12-28T09:41:22;45.37;;;31.07;;
24277;SDS011;12394;42.692;23.314;2023-12-28T09:43:54;47.20;;;30.63;;
24277;SDS011;12394;42.692;23.314;2023-12-28T09:46:25;49.77;;;31.37;;
24277;SDS011;12394;42.692;23.314;2023-12-28T09:48:53;43.73;;;30.47;;
24277;SDS011;12394;42.692;23.314;2023-12-28T09:51:21;43.33;;;30.37;;
24277;SDS011;12394;42.692;23.314;2023-12-28T09:53:46;41.73;;;31.03;;
24277;SDS011;12394;42.692;23.314;2023-12-28T09:56:13;46.07;;;32.00;;
24277;SDS011;12394;42.692;23.314;2023-12-28T09:58:41;48.03;;;32.93;;
24277;SDS011;12394;42.692;23.314;2023-12-28T10:01:07;44.33;;;30.73;;
24277;SDS011;12394;42.692;23.314;2023-12-28T10:03:35;52.07;;;32.87;;
24277;SDS011;12394;42.692;23.314;2023-12-28T10:06:00;49.90;;;33.60;;
24277;SDS011;12394;42.692;23.314;2023-12-28T10:08:26;42.17;;;33.00;;
24277;SDS011;12394;42.692;23.314;2023-12-28T10:10:51;44.87;;;32.37;;
24277;SDS011;12394;42.692;23.314;2023-12-28T10:13:19;46.23;;;30.63;;
24277;SDS011;12394;42.692;23.314;2023-12-28T10:15:46;50.40;;;32.93;;
24277;SDS011;12394;42.692;23.314;2023-12-28T10:18:16;44.07;;;31.87;;
24277;SDS011;12394;42.692;23.314;2023-12-28T10:20:47;49.70;;;33.17;;
24277;SDS011;12394;42.692;23.314;2023-12-28T10:23:16;46.33;;;32.60;;
24277;SDS011;12394;42.692;23.314;2023-12-28T10:25:42;45.87;;;31.40;;
24277;SDS011;12394;42.692;23.314;2023-12-28T10:28:09;40.43;;;31.43;;
24277;SDS011;12394;42.692;23.314;2023-12-28T10:30:37;45.23;;;30.13;;
24277;SDS011;12394;42.692;23.314;2023-12-28T10:33:04;37.33;;;28.30;;
24277;SDS011;12394;42.692;23.314;2023-12-28T10:35:30;37.43;;;28.03;;
24277;SDS011;12394;42.692;23.314;2023-12-28T10:37:56;40.30;;;28.43;;
24277;SDS011;12394;42.692;23.314;2023-12-28T10:40:25;35.57;;;25.97;;
24277;SDS011;12394;42.692;23.314;2023-12-28T10:42:55;34.20;;;25.83;;
24277;SDS011;12394;42.692;23.314;2023-12-28T10:45:26;36.97;;;27.00;;
24277;SDS011;12394;42.692;23.314;2023-12-28T10:53:13;38.53;;;27.53;;
24277;SDS011;12394;42.692;23.314;2023-12-28T10:55:40;46.93;;;28.90;;
24277;SDS011;12394;42.692;23.314;2023-12-28T10:58:19;34.27;;;25.63;;
24277;SDS011;12394;42.692;23.314;2023-12-28T11:00:56;32.43;;;25.07;;
24277;SDS011;12394;42.692;23.314;2023-12-28T11:03:28;35.33;;;26.80;;
24277;SDS011;12394;42.692;23.314;2023-12-28T11:05:59;43.03;;;27.97;;
24277;SDS011;12394;42.692;23.314;2023-12-28T11:08:27;37.93;;;26.83;;
24277;SDS011;12394;42.692;23.314;2023-12-28T11:10:54;41.77;;;26.80;;
24277;SDS011;12394;42.692;23.314;2023-12-28T11:13:21;39.97;;;26.97;;
24277;SDS011;12394;42.692;23.314;2023-12-28T11:15:48;42.13;;;26.77;;
24277;SDS011;12394;42.692;23.314;2023-12-28T11:18:15;31.50;;;21.93;;
24277;SDS011;12394;42.692;23.314;2023-12-28T11:20:45;32.57;;;21.70;;
24277;SDS011;12394;42.692;23.314;2023-12-28T11:23:11;32.70;;;25.20;;
24277;SDS011;12394;42.692;23.314;2023-12-28T11:25:37;37.70;;;26.37;;
24277;SDS011;12394;42.692;23.314;2023-12-28T11:28:12;35.20;;;26.37;;
24277;SDS011;12394;42.692;23.314;2023-12-28T11:30:41;37.30;;;26.40;;
24277;SDS011;12394;42.692;23.314;2023-12-28T11:33:07;41.07;;;26.53;;
24277;SDS011;12394;42.692;23.314;2023-12-28T11:35:35;43.00;;;27.03;;
24277;SDS011;12394;42.692;23.314;2023-12-28T11:38:03;45.77;;;29.00;;
24277;SDS011;12394;42.692;23.314;2023-12-28T11:40:39;49.63;;;27.10;;
24277;SDS011;12394;42.692;23.314;2023-12-28T11:43:14;35.83;;;25.77;;
24277;SDS011;12394;42.692;23.314;2023-12-28T11:45:51;38.77;;;25.03;;
24277;SDS011;12394;42.692;23.314;2023-12-28T11:48:26;46.70;;;27.63;;
24277;SDS011;12394;42.692;23.314;2023-12-28T11:50:57;53.53;;;27.87;;
24277;SDS011;12394;42.692;23.314;2023-12-28T11:53:24;54.50;;;34.20;;
24277;SDS011;12394;42.692;23.314;2023-12-28T11:55:50;47.30;;;28.23;;
24277;SDS011;12394;42.692;23.314;2023-12-28T11:58:16;41.60;;;26.80;;
24277;SDS011;12394;42.692;23.314;2023-12-28T12:00:43;36.27;;;26.20;;
24277;SDS011;12394;42.692;23.314;2023-12-28T12:03:12;43.17;;;25.43;;
24277;SDS011;12394;42.692;23.314;2023-12-28T12:05:38;48.93;;;25.83;;
24277;SDS011;12394;42.692;23.314;2023-12-28T12:08:05;40.33;;;23.40;;
24277;SDS011;12394;42.692;23.314;2023-12-28T12:10:33;34.80;;;24.27;;
24277;SDS011;12394;42.692;23.314;2023-12-28T12:12:59;38.50;;;25.27;;
24277;SDS011;12394;42.692;23.314;2023-12-28T12:15:25;49.10;;;32.33;;
24277;SDS011;12394;42.692;23.314;2023-12-28T12:17:50;45.70;;;26.20;;
24277;SDS011;12394;42.692;23.314;2023-12-28T12:20:16;44.53;;;24.17;;
24277;SDS011;12394;42.692;23.314;2023-12-28T12:22:42;37.00;;;26.70;;
24277;SDS011;12394;42.692;23.314;2023-12-28T12:25:07;42.90;;;26.37;;
24277;SDS011;12394;42.692;23.314;2023-12-28T12:27:33;38.20;;;27.27;;
24277;SDS011;12394;42.692;23.314;2023-12-28T12:29:59;41.23;;;26.83;;
24277;SDS011;12394;42.692;23.314;2023-12-28T12:32:25;45.87;;;27.13;;
24277;SDS011;12394;42.692;23.314;2023-12-28T12:34:51;47.30;;;26.77;;
24277;SDS011;12394;42.692;23.314;2023-12-28T12:37:17;48.57;;;28.07;;
24277;SDS011;12394;42.692;23.314;2023-12-28T12:39:43;42.37;;;23.73;;
24277;SDS011;12394;42.692;23.314;2023-12-28T12:42:12;30.97;;;21.93;;
24277;SDS011;12394;42.692;23.314;2023-12-28T12:44:39;42.97;;;25.33;;
24277;SDS011;12394;42.692;23.314;2023-12-28T12:47:04;34.13;;;24.00;;
24277;SDS011;12394;42.692;23.314;2023-12-28T12:49:30;41.93;;;24.63;;
24277;SDS011;12394;42.692;23.314;2023-12-28T12:51:56;48.30;;;26.23;;
24277;SDS011;12394;42.692;23.314;2023-12-28T12:54:22;40.63;;;25.20;;
24277;SDS011;12394;42.692;23.314;2023-12-28T12:56:49;51.40;;;27.00;;
24277;SDS011;12394;42.692;23.314;2023-12-28T12:59:15;43.37;;;25.63;;
24277;SDS011;12394;42.692;23.314;2023-12-28T13:01:44;50.50;;;29.03;;
24277;SDS011;12394;42.692;23.314;2023-12-28T13:04:10;47.90;;;27.33;;
24277;SDS011;12394;42.692;23.314;2023-12-28T13:06:37;43.47;;;25.50;;
24277;SDS011;12394;42.692;23.314;2023-12-28T13:09:03;41.53;;;26.37;;
24277;SDS011;12394;42.692;23.314;2023-12-28T13:11:31;39.80;;;25.07;;
24277;SDS011;12394;42.692;23.314;2023-12-28T13:13:58;35.83;;;25.43;;
24277;SDS011;12394;42.692;23.314;2023-12-28T13:16:23;37.73;;;25.93;;
24277;SDS011;12394;42.692;23.314;2023-12-28T13:18:49;43.57;;;23.97;;
24277;SDS011;12394;42.692;23.314;2023-12-28T13:21:14;41.50;;;24.00;;
24277;SDS011;12394;42.692;23.314;2023-12-28T13:23:40;43.47;;;27.97;;
24277;SDS011;12394;42.692;23.314;2023-12-28T13:26:05;31.17;;;22.73;;
24277;SDS011;12394;42.692;23.314;2023-12-28T13:28:31;36.37;;;22.77;;
24277;SDS011;12394;42.692;23.314;2023-12-28T13:30:56;39.20;;;25.20;;
24277;SDS011;12394;42.692;23.314;2023-12-28T13:33:22;39.90;;;23.50;;
24277;SDS011;12394;42.692;23.314;2023-12-28T13:35:49;40.97;;;24.83;;
24277;SDS011;12394;42.692;23.314;2023-12-28T13:38:14;34.20;;;24.40;;
24277;SDS011;12394;42.692;23.314;2023-12-28T13:40:40;37.23;;;25.43;;
24277;SDS011;12394;42.692;23.314;2023-12-28T13:43:05;38.63;;;25.07;;
24277;SDS011;12394;42.692;23.314;2023-12-28T13:45:31;37.27;;;24.57;;
24277;SDS011;12394;42.692;23.314;2023-12-28T13:47:57;33.53;;;24.87;;
24277;SDS011;12394;42.692;23.314;2023-12-28T13:50:22;36.80;;;23.57;;
24277;SDS011;12394;42.692;23.314;2023-12-28T13:52:47;42.10;;;23.73;;
24277;SDS011;12394;42.692;23.314;2023-12-28T13:55:13;37.80;;;20.87;;
24277;SDS011;12394;42.692;23.314;2023-12-28T13:57:38;36.67;;;22.17;;
24277;SDS011;12394;42.692;23.314;2023-12-28T14:00:04;37.27;;;21.80;;
24277;SDS011;12394;42.692;23.314;2023-12-28T14:02:30;42.17;;;22.13;;
24277;SDS011;12394;42.692;23.314;2023-12-28T14:04:56;34.10;;;23.07;;
24277;SDS011;12394;42.692;23.314;2023-12-28T14:07:22;36.63;;;23.60;;
24277;SDS011;12394;42.692;23.314;2023-12-28T14:09:48;39.53;;;23.23;;
24277;SDS011;12394;42.692;23.314;2023-12-28T14:12:14;35.37;;;24.10;;